Bango, Nevada Weather observations

Data are for 10 minute period ending at time listed.
 Day   Time    Ave.   Ave.  Ave.  Vector   Max.   Stn.    Total    Solar   Ave.  
  of    of     Air    Rel.  Wind   Wind    Wind   Baro.  Precip.   Rad.    Soil  
Year   Day     Temp.  Hum.  Speed  Dir.    Gust   Pres.                    Temp. 
2017   (PST)    F      %     mph   deg.    mph     mb.     in.     W/m2     F    
--------------------------------------------------------------------------------- 
 295    6:30   39.5    84    4.1   329      7.8   884.9    0.00      21    13.8  
 295    6:40   41.3    78    9.0   213     12.3   884.9    0.00      45    13.8  
 295    6:50   42.8    76    9.8   201     12.3   884.9    0.00      77    13.7  
 295    7:00   43.0    75    9.7   214     11.4   885.0    0.00     115    13.7  
 295    7:10   44.1    74    6.4   211     10.5   885.2    0.00     149    13.6  
 295    7:20   45.8    71    5.8   189     10.5   885.4    0.00     180    13.6  
 295    7:30   47.2    66   10.4   206     13.2   885.4    0.00     212    13.5  
 295    7:40   48.3    65    9.0   206     11.4   885.5    0.00     244    13.5  
 295    7:50   48.9    63    9.2   213     11.4   885.5    0.00     276    13.5  
 295    8:00   49.9    60   10.7   204     13.2   885.5    0.00     308    13.4  
 295    8:10   50.8    57   11.2   202     14.1   885.5    0.00     340    13.4  
 295    8:20   52.1    54   10.8   199     13.2   885.5    0.00     370    13.3  
 295    8:30   52.7    53   10.2   198     12.3   885.5    0.00     400    13.3  
 295    8:40   53.1    52    9.5   193     12.3   885.5    0.00     429    13.3  
 295    8:50   53.8    51    7.8   193     10.5   885.7    0.00     457    13.3  
 295    9:00   54.6    49    8.2   193     12.3   885.8    0.00     484    13.3  
 295    9:10   55.0    48   10.1   190     12.3   885.7    0.00     509    13.3  
 295    9:20   55.7    47   10.4   188     15.8   885.8    0.00     534    13.2  
 295    9:30   56.5    44    9.7   182     12.3   885.9    0.00     557    13.2  
 295    9:40   57.5    42    9.7   195     12.3   885.8    0.00     578    13.2  
 295    9:50   58.6    40   10.7   204     14.1   885.6    0.00     599    13.2  
 295   10:00   60.2    37   11.5   204     14.9   885.5    0.00     618    13.2  
 295   10:10   60.6    34   12.8   210     15.8   885.6    0.00     637    13.3  
 295   10:20   61.6    32   13.0   205     15.8   885.5    0.00     653    13.3  
 295   10:30   62.3    29   14.3   207     17.6   885.5    0.00     669    13.3  
 295   10:40   62.9    28   13.7   199     17.6   885.5    0.00     681    13.3  
 295   10:50   63.5    27   13.2   200     16.7   885.6    0.00     691    13.4  
 295   11:00   64.2    26   13.1   201     16.7   885.5    0.00     701    13.4  
 295   11:10   65.0    26   14.7   194     17.6   885.4    0.00     708    13.5  
 295   11:20   65.7    24   14.6   195     19.4   885.4    0.00     712    13.5  
 295   11:30   66.5    23   13.5   200     17.6   885.4    0.00     716    13.6  
 295   11:40   66.9    22   11.8   199     14.9   885.4    0.00     689    13.7  
 295   11:50   67.9    22   11.1   205     14.1   885.3    0.00     717    13.7  
 295   12:00   68.7    21    9.1   211     13.2   885.2    0.00     715    13.8  
 295   12:10   69.2    20    8.8   202     13.2   885.1    0.00     711    13.9  
 295   12:20   70.2    18   10.8   204     14.1   885.0    0.00     705    14.0  
 295   12:30   70.8    17   10.4   208     13.2   884.9    0.00     697    14.1  
 295   12:40   71.4    16    9.4   207     13.2   884.9    0.00     687    14.2  
 295   12:50   72.2    15    9.4   199     12.3   884.7    0.00     676    14.3  
 295   13:00   73.1    14   10.3   201     13.2   884.5    0.00     664    14.4  
 295   13:10   73.6    13   10.1   209     14.1   884.5    0.00     647    14.6  
 295   13:20   73.8    12   10.5   202     14.1   884.5    0.00     632    14.7  
 295   13:30   74.6    12   10.0   200     13.2   884.5    0.00     614    14.8  
 295   13:40   74.6    10    9.2   194     12.3   884.5    0.00     591    14.9  
 295   13:50   75.0    10    9.3   180     14.1   884.4    0.00     569    15.1  
 295   14:00   74.7    11   10.3   175     14.1   884.4    0.00     545    15.2  
 295   14:10   74.9    10   10.0   179     14.9   884.3    0.00     521    15.3  
 295   14:20   75.2    10    9.5   176     13.2   884.4    0.00     496    15.5  
 295   14:30   75.9    10    7.0   198     10.5   884.4    0.00     469    15.6  
 295   14:40   76.6    10    4.7   200      9.6   884.5    0.00     443    15.7  
 295   14:50   76.4    10    5.6   207     10.5   884.5    0.00     414    15.9  
 295   15:00   76.5    10    4.5   200      7.8   884.5    0.00     377    16.0  
 295   15:10   77.8    10    2.6   217      6.9   884.5    0.00     354    16.1  
 295   15:20   77.0    10    6.0   246     12.3   884.5    0.00     324    16.3  
 295   15:30   76.7    10    4.6   225      7.8   884.5    0.00     293    16.4  
 295   15:40   77.0    10    3.7   256      6.0   884.4    0.00     262    16.5  
 295   15:50   76.4    11    6.6   290     14.1   884.4    0.00     230    16.6  
 295   16:00   76.2    11    5.7   284      8.7   884.4    0.00     199    16.8  
 295   16:10   75.6    11    6.8   324      9.6   884.4    0.00     168    16.9  
 295   16:20   75.2    12    5.5   340      9.6   884.4    0.00     137    17.0  
 295   16:30   74.9    12    6.5   316      8.7   884.5    0.00      99    17.1  
 295   16:40   74.2    12    5.9   314      7.8   884.6    0.00      63    17.2  
 295   16:50   73.1    13    5.9   300      7.8   884.5    0.00      35    17.3  
 295   17:00   71.0    14    6.3   306      7.8   884.5    0.00      16    17.4  
 295   17:10   68.4    17    7.4   302      9.6   884.5    0.00       5    17.5  
 295   17:20   67.1    21    8.0   300     10.5   884.4    0.00       2    17.6  
 295   17:30   66.7    21    9.7   332     13.2   884.4    0.00       1    17.7  
 295   17:40   65.7    21    7.8   351      9.6   884.6    0.00       0    17.8  
 295   17:50   63.1    24    8.4   344     10.5   884.7    0.00       0    17.8  
 295   18:00   62.9    24    9.7   344     11.4   884.8    0.00       0    17.9  
 295   18:10   62.4    24    8.8   336     10.5   884.9    0.00       0    17.9  
 295   18:20   60.8    25    6.9   329      7.8   884.9    0.00       0    18.0  
 295   18:30   59.2    26    7.5   332      9.6   885.1    0.00       0    18.0  
 295   18:40   58.9    26    7.0   317      8.7   885.2    0.00       0    18.0  
 295   18:50   59.8    25    5.8   329      7.8   885.3    0.00       0    18.0  
 295   19:00   60.0    25    4.4   301      6.9   885.4    0.00       0    18.0  
 295   19:10   57.5    26    2.4   215      4.2   885.4    0.00       0    18.0  
 295   19:20   56.2    27    1.8   282      3.3   885.6    0.00       0    18.0  
 295   19:30   55.3    28    1.1   339      4.2   885.6    0.00       0    18.0  
 295   19:40   54.3    29    2.2    94      5.1   885.8    0.00       0    18.0  
 295   19:50   55.4    29    1.8    34      4.2   885.9    0.00       0    18.0  
 295   20:00   54.0    29    1.4   301      3.3   886.0    0.00       0    18.0  
 295   20:10   52.3    31    3.9   304      5.1   886.2    0.00       0    18.0  
 295   20:20   55.0    28    7.1   335      9.6   886.2    0.00       0    18.0  
 295   20:30   52.7    30    8.7   338     10.5   886.4    0.00       0    18.0  
 295   20:40   52.8    31   10.3   342     13.2   886.5    0.00       0    17.9  
 295   20:50   56.6    28   10.6   326     13.2   886.6    0.00       0    17.9  
 295   21:00   56.0    29    7.4   334      8.7   886.5    0.00       0    17.8  
 295   21:10   54.4    30    3.8   274      6.9   886.6    0.00       0    17.8  
 295   21:20   53.8    36    1.6   191      5.1   886.8    0.00       0    17.8  
 295   21:30   52.7    39    4.7   218      6.0   886.9    0.00       0    17.8  
 295   21:40   52.6    34    4.2   239      5.1   887.0    0.00       0    17.7  
 295   21:50   51.8    34    3.0   269      6.0   887.2    0.00       0    17.7  
 295   22:00   53.1    32    1.5   262      3.3   887.2    0.00       0    17.6  
 295   22:10   51.4    37    4.3   138      6.0   887.3    0.00       0    17.6  
 295   22:20   51.3    40    3.9   173      5.1   887.4    0.00       0    17.5  
 295   22:30   51.6    34    5.9   203      9.6   887.3    0.00       0    17.5  
 295   22:40   52.5    35    7.6   231      9.6   887.4    0.00       0    17.4  
 295   22:50   53.1    40    6.5   237      8.7   887.3    0.00       0    17.4  
 295   23:00   53.6    35    5.7   250      8.7   887.2    0.00       0    17.3  
 295   23:10   54.3    34    2.7   284      5.1   887.3    0.00       0    17.3  
 295   23:20   52.4    36    2.4   225      5.1   887.3    0.00       0    17.2  
 295   23:30   51.4    37    3.3   220      6.0   887.4    0.00       0    17.2  
 295   23:40   51.9    36    5.6   216      6.9   887.4    0.00       0    17.1  
 295   23:50   51.0    44    3.1   170      5.1   887.6    0.00       0    17.1  
 296    0:00   49.2    45    1.5   238      3.3   887.7    0.00       0    17.0  
 296    0:10   47.7    45    2.3   304      6.0   887.9    0.00       0    17.0  
 296    0:20   47.0    45    7.1   344      9.6   887.9    0.00       0    17.0  
 296    0:30   47.2    44    3.9   278      8.7   888.0    0.00       0    16.9  
 296    0:40   51.4    40    3.0   268      5.1   888.0    0.00       0    16.8  
 296    0:50   55.3    36    6.4   306      9.6   887.9    0.00       0    16.8  
 296    1:00   55.6    35    6.7   335      9.6   888.0    0.00       0    16.7  
 296    1:10   53.6    39    6.0   278      8.7   887.9    0.00       0    16.7  
 296    1:20   54.3    39    7.5   277     10.5   887.9    0.00       0    16.6  
 296    1:30   56.1    37    6.8   292      9.6   887.8    0.00       0    16.6  
 296    1:40   54.1    41    4.3   348      8.7   887.9    0.00       0    16.5  
 296    1:50   50.0    46    2.8   214      6.9   887.8    0.00       0    16.5  
 296    2:00   50.1    46    1.1   360      4.2   887.8    0.00       0    16.4  
 296    2:10   47.6    52    2.2    56      5.1   887.8    0.00       0    16.4  
 296    2:20   46.4    59    3.5    58      6.9   887.9    0.00       0    16.4  
 296    2:30   47.4    57    5.4   336      8.7   888.0    0.00       0    16.3  
 296    2:40   47.6    55    9.6   316     13.2   888.0    0.00       0    16.3  
 296    2:50   53.6    48   10.2   314     12.3   888.1    0.00       0    16.2  
 296    3:00   54.2    46   10.9   312     13.2   888.0    0.00       0    16.1  
 296    3:10   53.9    46    9.7   312     13.2   887.9    0.00       0    16.1  
 296    3:20   53.0    47    8.7   318     11.4   887.9    0.00       0    16.0  
 296    3:30   53.1    48    7.9   322      9.6   888.0    0.00       0    16.0  
 296    3:40   52.9    49    7.8   322      9.6   888.1    0.00       0    16.0  
 296    3:50   53.2    50    7.9   304     10.5   888.2    0.00       0    15.9  
 296    4:00   53.8    48    4.4   231      8.7   888.2    0.00       0    15.9  
 296    4:10   52.1    52    2.4   240      5.1   888.2    0.00       0    15.8  
 296    4:20   53.4    52    1.2   308      4.2   888.3    0.00       0    15.8  
 296    4:30   52.5    54    6.0   307      9.6   888.4    0.00       0    15.8  
 296    4:40   53.9    53    6.9   319     10.5   888.5    0.00       0    15.7  
 296    4:50   51.3    53    4.0   336      6.9   888.6    0.00       0    15.7  
 296    5:00   48.5    60    4.5     1      8.7   888.7    0.00       0    15.6  
 296    5:10   51.2    58    7.5   309     14.1   888.8    0.00       0    15.6  
 296    5:20   53.0    54    8.4   306     13.2   888.9    0.00       0    15.5  
 296    5:30   52.4    54    4.9   280     10.5   888.9    0.00       0    15.5  
 296    5:40   51.3    58    1.2   332      3.3   889.0    0.00       0    15.5  
 296    5:50   49.6    61    1.6    96      3.3   889.2    0.00       0    15.4  
 296    6:00   49.3    63    2.8   292      6.9   889.2    0.00       0    15.4  
 296    6:10   51.0    60    6.4   310      8.7   889.2    0.00       2    15.4  
 296    6:20   49.9    61    3.5   190      5.1   889.3    0.00       5    15.3  

Return to Garden Spring, Nevada graphs page.


Western Regional Climate Center,wrcc@dri.edu